Time;durP1;ratioP1;P1;durP2;ratioP2;P2;SDS_P1;SDS_P2;PMS_P1;PMS_P2;Temp;Humidity;BMP_temperature;BMP_pressure;BME280_temperature;BME280_humidity;BME280_pressure;Samples;Min_cycle;Max_cycle;Signal;HPM_P1;HPM_P2
2023/01/25 16:47:37;;;;;;;56.25;17.92;;;-0.70;99.90;;;;;;5079846;27;1291922;-62
2023/01/25 16:50:03;;;;;;;54.25;20.17;;;-0.80;99.90;;;;;;5109466;28;20044;-62
2023/01/25 16:52:29;;;;;;;57.95;20.27;;;-0.70;99.90;;;;;;5089550;28;20103;-64
2023/01/25 16:54:55;;;;;;;62.30;21.98;;;-0.60;99.90;;;;;;5109089;28;20055;-62
2023/01/25 16:57:20;;;;;;;61.15;23.23;;;-0.50;99.90;;;;;;5109037;28;20032;-63
2023/01/25 16:59:46;;;;;;;61.97;24.52;;;-0.50;99.90;;;;;;5089961;28;20384;-62
2023/01/25 17:02:12;;;;;;;62.53;22.83;;;-0.40;99.90;;;;;;5090467;28;20028;-62
2023/01/25 17:04:37;;;;;;;65.95;23.70;;;-0.40;99.90;;;;;;5108810;28;20024;-62
2023/01/25 17:07:03;;;;;;;68.05;23.02;;;-0.30;99.90;;;;;;5090643;28;20036;-62
2023/01/25 17:09:28;;;;;;;63.00;22.20;;;-0.30;99.90;;;;;;5108836;28;20020;-63
2023/01/25 17:11:54;;;;;;;69.03;23.52;;;-0.30;99.90;;;;;;5108599;28;20527;-63
2023/01/25 17:14:20;;;;;;;68.15;23.80;;;-0.30;99.90;;;;;;5108147;28;21079;-62
2023/01/25 17:16:49;;;;;;;63.08;21.45;;;-0.30;99.90;;;;;;5108499;28;20053;-63
2023/01/25 17:19:15;;;;;;;59.00;21.30;;;-0.30;99.90;;;;;;5108936;28;20018;-62
2023/01/25 17:21:41;;;;;;;60.65;21.10;;;-0.30;99.90;;;;;;5108015;28;20028;-63
2023/01/25 17:24:07;;;;;;;70.18;23.00;;;-0.30;99.90;;;;;;5090510;28;20057;-63
2023/01/25 17:26:33;;;;;;;57.72;21.02;;;-0.30;99.90;;;;;;5107911;28;20244;-63
2023/01/25 17:29:01;;;;;;;64.05;22.15;;;-0.30;99.90;;;;;;5108005;28;20123;-63
2023/01/25 17:31:32;;;;;;;52.47;19.92;;;-0.30;99.90;;;;;;5109135;28;20459;-63
2023/01/25 17:34:01;;;;;;;61.15;20.40;;;-0.30;99.90;;;;;;5089850;28;20024;-63
2023/01/25 17:36:27;;;;;;;56.30;19.30;;;-0.30;99.90;;;;;;5109119;28;20036;-63
2023/01/25 17:38:52;;;;;;;51.97;18.27;;;-0.30;99.90;;;;;;5108548;28;20538;-63
2023/01/25 17:41:19;;;;;;;54.33;21.13;;;-0.20;99.90;;;;;;5089262;28;20015;-62
2023/01/25 17:43:49;;;;;;;58.88;21.13;;;-0.20;99.90;;;;;;5107848;28;20085;-63
2023/01/25 17:46:24;;;;;;;58.03;19.33;;;-0.20;99.90;;;;;;5108404;28;20154;-63
2023/01/25 17:48:51;;;;;;;56.28;20.00;;;-0.10;99.90;;;;;;5107533;28;20024;-63
2023/01/25 17:51:18;;;;;;;59.05;21.83;;;-0.10;99.90;;;;;;5108840;28;20066;-63
2023/01/25 17:53:44;;;;;;;62.55;21.63;;;-0.20;99.90;;;;;;5108079;28;20012;-63
2023/01/25 17:56:10;;;;;;;62.05;22.42;;;-0.20;99.90;;;;;;5105920;28;20099;-63
2023/01/25 17:58:37;;;;;;;58.80;22.25;;;-0.20;99.90;;;;;;5096702;28;20089;-63
2023/01/25 18:01:23;;;;;;;62.55;22.60;;;-0.30;99.90;;;;;;5076367;28;20362;-64
2023/01/25 18:03:51;;;;;;;56.42;20.08;;;-0.30;99.90;;;;;;5093762;28;20039;-63
2023/01/25 18:06:20;;;;;;;64.80;20.55;;;-0.30;99.90;;;;;;5094249;28;20068;-64
2023/01/25 18:08:51;;;;;;;60.13;21.42;;;-0.20;99.90;;;;;;5093392;28;20439;-63
2023/01/25 18:11:20;;;;;;;48.03;20.35;;;-0.20;99.90;;;;;;5076263;28;20031;-64
2023/01/25 18:13:48;;;;;;;56.83;20.63;;;-0.10;99.90;;;;;;5075963;28;20013;-63
2023/01/25 18:16:14;;;;;;;54.42;20.80;;;0.00;99.90;;;;;;5093703;28;20109;-63
2023/01/25 18:18:41;;;;;;;58.17;20.80;;;0.00;99.90;;;;;;5076266;28;20058;-63
2023/01/25 18:21:12;;;;;;;59.45;21.00;;;0.00;99.90;;;;;;5094419;28;20028;-63
2023/01/25 18:23:38;;;;;;;;;;;0.00;99.90;;;;;;5068780;28;20029;-63
2023/01/25 18:26:06;;;;;;;45.83;17.65;;;-0.10;99.90;;;;;;5073853;28;20015;-63
2023/01/25 18:28:32;;;;;;;54.53;19.70;;;0.00;99.90;;;;;;5081730;28;20034;-63
2023/01/25 18:31:02;;;;;;;56.50;21.98;;;-0.10;99.90;;;;;;5093849;28;20016;-63
2023/01/25 18:33:28;;;;;;;59.28;20.33;;;-0.10;99.90;;;;;;5075907;28;20032;-63
2023/01/25 18:35:56;;;;;;;57.55;22.40;;;0.00;99.90;;;;;;5094054;28;20528;-63
2023/01/25 18:38:22;;;;;;;51.58;17.45;;;0.00;99.90;;;;;;5093550;28;20020;-63
2023/01/25 18:40:47;;;;;;;56.03;20.02;;;0.00;99.90;;;;;;5093653;28;20020;-63
2023/01/25 18:43:15;;;;;;;48.42;17.98;;;0.10;99.90;;;;;;5093732;28;20418;-63
2023/01/25 18:45:41;;;;;;;53.08;20.75;;;0.10;99.90;;;;;;5092904;28;20067;-63
2023/01/25 18:48:08;;;;;;;60.78;22.58;;;0.30;99.90;;;;;;5093634;28;20036;-64
2023/01/25 18:50:37;;;;;;;62.65;23.15;;;0.30;99.90;;;;;;5093441;28;20020;-63
2023/01/25 18:53:03;;;;;;;57.40;22.40;;;0.30;99.90;;;;;;5092927;28;20540;-63
2023/01/25 18:55:28;;;;;;;54.67;21.45;;;0.30;99.90;;;;;;5093833;28;20071;-63
2023/01/25 18:57:56;;;;;;;58.00;22.15;;;0.30;99.90;;;;;;5074657;28;20047;-63
2023/01/25 19:00:21;;;;;;;60.83;22.60;;;0.30;99.90;;;;;;5093173;28;20070;-63
2023/01/25 19:02:47;;;;;;;64.53;21.88;;;0.40;99.90;;;;;;5092935;28;20448;-63
2023/01/25 19:05:17;;;;;;;62.28;22.65;;;0.30;99.90;;;;;;5092480;28;20024;-63
2023/01/25 19:07:42;;;;;;;53.63;22.33;;;0.30;99.90;;;;;;5092870;28;20043;-64
2023/01/25 19:10:10;;;;;;;63.17;24.27;;;0.30;99.90;;;;;;5092455;28;20024;-64
2023/01/25 19:12:35;;;;;;;58.83;21.92;;;0.30;99.90;;;;;;5091932;28;20117;-63
2023/01/25 19:15:01;;;;;;;59.15;21.50;;;0.40;99.90;;;;;;5093316;28;20468;-64
2023/01/25 19:17:26;;;;;;;57.97;21.63;;;0.30;99.90;;;;;;5093414;28;20467;-64
2023/01/25 19:19:52;;;;;;;60.88;23.38;;;0.30;99.90;;;;;;5092445;28;20498;-63
2023/01/25 19:22:18;;;;;;;59.08;21.73;;;0.20;99.90;;;;;;5092242;28;20020;-64
2023/01/25 19:24:43;;;;;;;57.78;22.38;;;0.20;99.90;;;;;;5092496;28;20139;-64
2023/01/25 19:27:09;;;;;;;55.75;19.13;;;0.20;99.90;;;;;;5092462;28;20089;-64
2023/01/25 19:29:35;;;;;;;55.13;19.08;;;0.20;99.90;;;;;;5092827;28;20111;-63
2023/01/25 19:32:01;;;;;;;58.45;20.88;;;0.20;99.90;;;;;;5093141;28;20464;-63
2023/01/25 19:34:26;;;;;;;54.28;20.05;;;0.20;99.90;;;;;;5092597;28;20028;-63
2023/01/25 19:36:52;;;;;;;57.90;22.27;;;0.30;99.90;;;;;;5091280;28;20430;-63
2023/01/25 19:39:18;;;;;;;49.95;19.48;;;0.30;99.90;;;;;;5092169;28;20035;-63
2023/01/25 19:41:44;;;;;;;58.58;22.17;;;0.30;99.90;;;;;;5092727;28;20035;-63
2023/01/25 19:44:12;;;;;;;60.63;22.38;;;0.30;99.90;;;;;;5088645;28;20043;-63
2023/01/25 19:46:38;;;;;;;58.40;20.90;;;0.30;99.90;;;;;;5091381;28;20419;-64
2023/01/25 19:49:06;;;;;;;61.35;22.95;;;0.30;99.90;;;;;;5091373;28;20476;-64
2023/01/25 19:51:38;;;;;;;59.15;22.88;;;0.30;99.90;;;;;;5091948;28;20036;-64
2023/01/25 19:54:10;;;;;;;65.78;23.25;;;0.30;99.90;;;;;;5092455;28;20062;-64
2023/01/25 19:56:38;;;;;;;62.47;23.40;;;0.40;99.90;;;;;;5092232;28;20028;-64
2023/01/25 19:59:05;;;;;;;62.78;24.15;;;0.40;99.90;;;;;;5092567;28;20021;-64
2023/01/25 20:01:31;;;;;;;65.80;23.40;;;0.40;99.90;;;;;;5073226;28;20048;-64
2023/01/25 20:03:57;;;;;;;63.38;22.67;;;0.40;99.90;;;;;;5092507;28;20050;-64
2023/01/25 20:06:24;;;;;;;59.78;22.60;;;0.30;99.90;;;;;;5074356;28;20089;-64
2023/01/25 20:08:51;;;;;;;68.28;24.45;;;0.30;99.90;;;;;;5090897;28;20612;-64
2023/01/25 20:11:25;;;;;;;70.38;25.80;;;0.30;99.90;;;;;;5074197;28;20792;-65
2023/01/25 20:13:54;;;;;;;64.43;24.10;;;0.30;99.90;;;;;;5092093;28;20420;-64
2023/01/25 20:16:20;;;;;;;67.45;22.67;;;0.30;99.90;;;;;;5073650;28;20024;-65
2023/01/25 20:18:47;;;;;;;66.18;24.88;;;0.30;99.90;;;;;;5092153;28;20019;-65
2023/01/25 20:21:15;;;;;;;74.65;25.63;;;0.30;99.90;;;;;;5091790;28;20407;-64
2023/01/25 20:23:43;;;;;;;74.57;26.80;;;0.30;99.90;;;;;;5090668;28;20035;-65
2023/01/25 20:26:19;;;;;;;76.45;24.90;;;0.30;99.90;;;;;;5073856;28;20437;-64
2023/01/25 20:28:50;;;;;;;69.90;25.27;;;0.30;99.90;;;;;;5092356;28;20031;-66
2023/01/25 20:31:22;;;;;;;73.53;25.07;;;0.30;99.90;;;;;;5091018;28;20086;-65
2023/01/25 20:33:49;;;;;;;75.38;26.33;;;0.30;99.90;;;;;;5091491;28;20282;-65
2023/01/25 20:36:15;;;;;;;83.43;24.98;;;0.20;99.90;;;;;;5074154;28;20020;-64
2023/01/25 20:38:41;;;;;;;80.75;28.15;;;0.30;99.90;;;;;;5073256;28;20032;-65
2023/01/25 20:41:12;;;;;;;81.88;25.77;;;0.30;99.90;;;;;;5091873;28;20032;-65
2023/01/25 20:43:38;;;;;;;82.50;26.10;;;0.20;99.90;;;;;;5090851;28;20020;-65
2023/01/25 20:46:03;;;;;;;80.53;30.08;;;0.30;99.90;;;;;;5073314;28;20051;-65
2023/01/25 20:48:35;;;;;;;105.45;36.35;;;0.30;99.90;;;;;;5091852;28;20103;-65
2023/01/25 20:51:03;;;;;;;95.20;31.08;;;0.20;99.90;;;;;;5091653;28;20496;-65
2023/01/25 20:53:29;;;;;;;87.20;29.92;;;0.20;99.90;;;;;;5091127;28;20551;-65
2023/01/25 20:55:57;;;;;;;87.28;31.02;;;0.20;99.90;;;;;;5092259;28;20376;-66
2023/01/25 20:58:23;;;;;;;90.55;30.27;;;0.20;99.90;;;;;;5073291;28;20471;-65
2023/01/25 21:00:48;;;;;;;88.53;31.45;;;0.20;99.90;;;;;;5091915;28;20028;-65
2023/01/25 21:03:14;;;;;;;93.78;30.83;;;0.20;99.90;;;;;;5091638;28;20031;-63
